Time;durP1;ratioP1;P1;durP2;ratioP2;P2;SDS_P1;SDS_P2;PMS_P1;PMS_P2;Temp;Humidity;BMP_temperature;BMP_pressure;BME280_temperature;BME280_humidity;BME280_pressure;Samples;Min_cycle;Max_cycle;Signal;HPM_P1;HPM_P2
2022/07/31 00:01:12;;;;;;;;;;;;;;;23.69;71.35;100512.66;5017557;28;19917;-85
2022/07/31 00:03:38;;;;;;;;;;;;;;;23.67;71.92;100504.69;5033912;28;20694;-85
2022/07/31 00:06:04;;;;;;;;;;;;;;;23.54;72.26;100505.03;5032288;28;19909;-86
2022/07/31 00:08:33;;;;;;;;;;;;;;;23.50;72.42;100498.38;5035395;28;19939;-85
2022/07/31 00:10:58;;;;;;;;;;;;;;;23.53;72.40;100498.72;5015084;28;19921;-86
2022/07/31 00:13:25;;;;;;;;;;;;;;;23.57;72.16;100494.34;5033282;28;20013;-85
2022/07/31 00:15:50;;;;;;;;;;;;;;;23.56;71.72;100502.88;4999895;28;19917;-84
2022/07/31 00:18:18;;;;;;;;;;;;;;;23.52;69.29;100485.22;5036222;28;19936;-84
2022/07/31 00:20:43;;;;;;;;;;;;;;;23.66;67.39;100500.25;5029014;28;19940;-85
2022/07/31 00:23:12;;;;;;;;;;;;;;;23.65;67.46;100495.88;5027373;28;19921;-85
2022/07/31 00:25:38;;;;;;;;;;;;;;;23.56;67.37;100494.63;5026595;28;19913;-84
2022/07/31 00:28:03;;;;;;;;;;;;;;;23.46;66.84;100505.44;5029476;28;19924;-84
2022/07/31 00:30:31;;;;;;;;;;;;;;;23.46;66.80;100505.44;5021637;28;19917;-86
2022/07/31 00:32:57;;;;;;;;;;;;;;;23.36;67.80;100519.81;5044903;28;19925;-84
2022/07/31 00:35:22;;;;;;;;;;;;;;;23.35;68.52;100532.69;5016031;28;19924;-85
2022/07/31 00:37:47;;;;;;;;;;;;;;;23.31;69.83;100526.03;5031050;28;20368;-89
2022/07/31 00:40:14;;;;;;;;;;;;;;;23.29;70.71;100530.94;5028766;28;19964;-85
2022/07/31 00:42:40;;;;;;;;;;;;;;;23.22;71.97;100533.03;5018252;28;19924;-85
2022/07/31 00:45:06;;;;;;;;;;;;;;;23.13;73.00;100539.97;5028628;28;19918;-84
2022/07/31 00:47:31;;;;;;;;;;;;;;;23.03;74.34;100537.91;5026306;28;19917;-84
2022/07/31 00:49:57;;;;;;;;;;;;;;;22.86;75.33;100537.00;5019489;28;20420;-84
2022/07/31 00:52:24;;;;;;;;;;;;;;;22.81;76.08;100540.47;5022516;28;20012;-84
2022/07/31 00:54:49;;;;;;;;;;;;;;;22.81;75.99;100545.97;5020431;28;19917;-84
2022/07/31 00:57:15;;;;;;;;;;;;;;;22.79;75.26;100542.63;5014056;28;19920;-84
2022/07/31 00:59:41;;;;;;;;;;;;;;;22.79;75.02;100545.38;5030683;28;19919;-84
2022/07/31 01:02:08;;;;;;;;;;;;;;;22.69;74.93;100542.44;5029497;28;20015;-84
2022/07/31 01:04:35;;;;;;;;;;;;;;;22.63;74.82;100546.16;5022929;28;20394;-84
2022/07/31 01:07:02;;;;;;;;;;;;;;;22.62;74.44;100553.53;5018735;28;20008;-85
2022/07/31 01:09:29;;;;;;;;;;;;;;;22.59;73.61;100547.69;5029366;28;19924;-85
2022/07/31 01:11:54;;;;;;;;;;;;;;;22.53;73.41;100549.53;5030999;28;20045;-85
2022/07/31 01:14:20;;;;;;;;;;;;;;;22.62;73.31;100549.97;5027213;28;19956;-84
2022/07/31 01:16:46;;;;;;;;;;;;;;;22.65;74.33;100542.09;5027224;28;20003;-85
2022/07/31 01:19:23;;;;;;;;;;;;;;;22.45;74.80;100542.53;5020782;28;19968;-85
2022/07/31 01:21:55;;;;;;;;;;;;;;;22.48;75.46;100539.28;5031110;28;19960;-84
2022/07/31 01:24:20;;;;;;;;;;;;;;;22.44;75.79;100540.84;5021641;28;19928;-85
2022/07/31 01:26:51;;;;;;;;;;;;;;;22.33;76.38;100538.97;5031896;28;19917;-85
2022/07/31 01:29:34;;;;;;;;;;;;;;;22.32;77.07;100531.84;5031170;28;21352;-85
2022/07/31 01:32:09;;;;;;;;;;;;;;;22.32;77.03;100526.34;5027197;28;20278;-85
2022/07/31 01:34:51;;;;;;;;;;;;;;;22.31;77.34;100519.19;5021907;28;19917;-85
2022/07/31 01:37:19;;;;;;;;;;;;;;;22.48;76.30;100528.34;5030673;28;19917;-85
2022/07/31 01:40:04;;;;;;;;;;;;;;;22.51;75.95;100525.09;5024099;28;20308;-85
2022/07/31 01:42:29;;;;;;;;;;;;;;;22.47;75.75;100520.34;5027696;28;20011;-85
2022/07/31 01:44:56;;;;;;;;;;;;;;;22.50;75.55;100517.13;5024918;28;19960;-86
2022/07/31 01:47:22;;;;;;;;;;;;;;;22.50;75.02;100511.63;5030746;28;20256;-86
2022/07/31 01:49:50;;;;;;;;;;;;;;;22.49;75.00;100510.81;5029935;28;19984;-85
2022/07/31 01:52:16;;;;;;;;;;;;;;;22.59;74.66;100506.63;5014487;28;19914;-85
2022/07/31 01:54:43;;;;;;;;;;;;;;;22.52;73.78;100510.34;5006142;28;19945;-85
2022/07/31 01:57:09;;;;;;;;;;;;;;;22.54;73.10;100513.66;5034163;28;19960;-85
2022/07/31 01:59:35;;;;;;;;;;;;;;;22.55;72.03;100493.41;5027433;28;19952;-84
2022/07/31 02:02:00;;;;;;;;;;;;;;;22.63;71.09;100494.09;5027764;28;20439;-84
2022/07/31 02:04:25;;;;;;;;;;;;;;;22.67;70.36;100492.53;5010988;28;20532;-84
2022/07/31 02:06:51;;;;;;;;;;;;;;;22.62;69.89;100489.69;5030002;28;20373;-85
2022/07/31 02:09:17;;;;;;;;;;;;;;;22.65;69.57;100481.81;5022423;28;20046;-85
2022/07/31 02:11:42;;;;;;;;;;;;;;;22.61;70.11;100475.16;5030557;28;19932;-85
2022/07/31 02:14:08;;;;;;;;;;;;;;;22.67;69.89;100478.84;5027730;28;19913;-84
2022/07/31 02:16:34;;;;;;;;;;;;;;;22.73;69.98;100466.88;5030677;28;19917;-84
2022/07/31 02:19:00;;;;;;;;;;;;;;;22.74;69.56;100469.38;5007594;28;19924;-84
2022/07/31 02:21:27;;;;;;;;;;;;;;;22.72;69.60;100471.53;5031718;28;19917;-84
2022/07/31 02:23:55;;;;;;;;;;;;;;;22.57;70.09;100481.38;5029747;28;19913;-85
2022/07/31 02:26:21;;;;;;;;;;;;;;;22.50;71.04;100482.34;5031483;28;19936;-84
2022/07/31 02:28:46;;;;;;;;;;;;;;;22.55;71.50;100482.44;5026429;28;19924;-84
2022/07/31 02:31:13;;;;;;;;;;;;;;;22.65;71.10;100478.25;5020807;28;19999;-83
2022/07/31 02:33:39;;;;;;;;;;;;;;;22.61;71.30;100474.31;5031132;28;19925;-84
2022/07/31 02:36:06;;;;;;;;;;;;;;;22.65;71.13;100484.56;5034683;28;19940;-84
2022/07/31 02:38:32;;;;;;;;;;;;;;;22.51;71.55;100481.28;5008783;28;19959;-84
2022/07/31 02:41:00;;;;;;;;;;;;;;;22.49;71.21;100480.69;4999518;28;20071;-84
2022/07/31 02:43:25;;;;;;;;;;;;;;;22.58;70.67;100474.81;5016042;28;20015;-84
2022/07/31 02:45:51;;;;;;;;;;;;;;;22.36;71.63;100478.25;5010118;28;20077;-85
2022/07/31 02:48:17;;;;;;;;;;;;;;;22.43;71.50;100478.09;5022391;28;20305;-85
2022/07/31 02:50:44;;;;;;;;;;;;;;;22.41;71.41;100475.59;5027350;28;19920;-85
2022/07/31 02:53:10;;;;;;;;;;;;;;;22.49;71.27;100482.59;5027754;28;20401;-85
2022/07/31 02:55:36;;;;;;;;;;;;;;;22.53;70.82;100468.16;5024015;28;20031;-86
2022/07/31 02:58:03;;;;;;;;;;;;;;;22.53;70.80;100472.81;5030066;28;19913;-85
2022/07/31 03:00:30;;;;;;;;;;;;;;;22.42;71.00;100482.72;5032011;28;19959;-86
2022/07/31 03:02:55;;;;;;;;;;;;;;;22.51;70.77;100473.06;5028942;28;19949;-84
2022/07/31 03:05:23;;;;;;;;;;;;;;;22.54;71.21;100475.28;5027252;28;20027;-84
2022/07/31 03:07:49;;;;;;;;;;;;;;;22.40;71.71;100468.44;5028883;28;19917;-85
2022/07/31 03:10:14;;;;;;;;;;;;;;;22.48;71.64;100470.81;5019362;28;20283;-85
2022/07/31 03:12:42;;;;;;;;;;;;;;;22.52;71.72;100477.47;5031032;28;19914;-84
2022/07/31 03:15:08;;;;;;;;;;;;;;;22.59;72.55;100469.06;5037794;28;20381;-84
2022/07/31 03:17:34;;;;;;;;;;;;;;;22.62;72.61;100465.88;5019237;28;19913;-84
2022/07/31 03:20:00;;;;;;;;;;;;;;;22.66;73.36;100461.53;5013171;28;19924;-84
2022/07/31 03:22:26;;;;;;;;;;;;;;;22.59;74.48;100465.50;5027165;28;19929;-85
2022/07/31 03:24:52;;;;;;;;;;;;;;;22.61;74.36;100466.09;5013948;28;19921;-85
2022/07/31 03:27:18;;;;;;;;;;;;;;;22.71;74.64;100461.66;5026857;28;20020;-85
2022/07/31 03:29:44;;;;;;;;;;;;;;;22.82;74.42;100464.56;5025738;28;19925;-84
2022/07/31 03:32:10;;;;;;;;;;;;;;;22.76;75.11;100460.91;5030374;28;19936;-85
2022/07/31 03:34:36;;;;;;;;;;;;;;;22.77;75.11;100457.09;5027563;28;19936;-85
2022/07/31 03:37:02;;;;;;;;;;;;;;;22.83;74.96;100458.00;5025380;28;19921;-83
2022/07/31 03:39:27;;;;;;;;;;;;;;;22.86;74.86;100455.59;5024563;28;20495;-85
2022/07/31 03:41:53;;;;;;;;;;;;;;;22.93;74.65;100459.03;5033216;28;20476;-86
2022/07/31 03:44:19;;;;;;;;;;;;;;;22.85;74.74;100450.38;5023402;28;19979;-84
2022/07/31 03:46:44;;;;;;;;;;;;;;;22.92;74.45;100454.63;5029560;28;19917;-85
2022/07/31 03:49:09;;;;;;;;;;;;;;;22.99;74.27;100448.16;5021555;28;19996;-85
2022/07/31 03:51:35;;;;;;;;;;;;;;;23.08;73.91;100441.19;5036024;28;20361;-86
2022/07/31 03:54:02;;;;;;;;;;;;;;;23.05;73.95;100439.78;5022734;28;19913;-85
2022/07/31 03:56:27;;;;;;;;;;;;;;;23.03;73.79;100438.38;5035381;28;19960;-85
2022/07/31 03:58:55;;;;;;;;;;;;;;;23.10;73.25;100428.06;5031308;28;19966;-86
2022/07/31 04:01:20;;;;;;;;;;;;;;;23.23;72.06;100433.22;5034611;28;20360;-85
2022/07/31 04:03:46;;;;;;;;;;;;;;;23.08;72.55;100433.78;5032397;28;19971;-85
2022/07/31 04:06:11;;;;;;;;;;;;;;;23.23;72.07;100427.75;5023856;28;19971;-85
2022/07/31 04:08:38;;;;;;;;;;;;;;;23.38;71.59;100424.38;5021999;28;19922;-84
2022/07/31 04:11:03;;;;;;;;;;;;;;;23.45;71.57;100429.72;5029016;28;19940;-83
2022/07/31 04:13:29;;;;;;;;;;;;;;;23.55;71.16;100419.72;5021118;28;20013;-83
2022/07/31 04:15:55;;;;;;;;;;;;;;;23.45;71.32;100424.22;5028409;28;19921;-84
2022/07/31 04:18:20;;;;;;;;;;;;;;;23.45;71.61;100429.72;5025750;28;19917;-86
2022/07/31 04:20:47;;;;;;;;;;;;;;;23.48;71.24;100430.00;5031481;28;19933;-86
2022/07/31 04:23:14;;;;;;;;;;;;;;;23.60;71.20;100428.03;5032450;28;20238;-85
2022/07/31 04:25:42;;;;;;;;;;;;;;;23.48;71.97;100434.69;5028283;28;20006;-85
2022/07/31 04:28:08;;;;;;;;;;;;;;;23.43;73.01;100431.88;5035134;28;19925;-83
2022/07/31 04:30:34;;;;;;;;;;;;;;;23.46;72.66;100432.22;5045374;28;19927;-85
2022/07/31 04:33:00;;;;;;;;;;;;;;;23.38;73.50;100427.97;5016469;28;19917;-84
2022/07/31 04:35:26;;;;;;;;;;;;;;;23.52;72.92;100433.94;5034209;28;19925;-85
2022/07/31 04:37:52;;;;;;;;;;;;;;;23.65;72.46;100431.91;5032333;28;20061;-85
2022/07/31 04:40:17;;;;;;;;;;;;;;;23.74;71.75;100438.63;5025885;28;20402;-83
2022/07/31 04:42:43;;;;;;;;;;;;;;;23.83;71.15;100439.03;5030500;28;19921;-86
2022/07/31 04:45:08;;;;;;;;;;;;;;;23.85;70.68;100428.63;5025453;28;20357;-85
2022/07/31 04:47:33;;;;;;;;;;;;;;;23.97;70.08;100432.91;5013139;28;19979;-85
2022/07/31 04:49:59;;;;;;;;;;;;;;;24.17;69.89;100437.84;5002862;28;20011;-86
2022/07/31 04:52:27;;;;;;;;;;;;;;;24.39;68.63;100439.72;5023000;28;19975;-85
2022/07/31 04:54:53;;;;;;;;;;;;;;;24.53;67.82;100438.25;5026725;28;19917;-86
2022/07/31 04:57:19;;;;;;;;;;;;;;;24.72;67.31;100443.38;5032840;28;19917;-84
2022/07/31 04:59:47;;;;;;;;;;;;;;;24.85;66.56;100443.78;5030007;28;19917;-84
2022/07/31 05:02:12;;;;;;;;;;;;;;;25.10;65.31;100438.75;5032307;28;19970;-84
2022/07/31 05:04:39;;;;;;;;;;;;;;;25.35;64.56;100436.25;5031846;28;19913;-84
2022/07/31 05:07:05;;;;;;;;;;;;;;;25.46;64.11;100443.47;5027530;28;20029;-86
2022/07/31 05:09:34;;;;;;;;;;;;;;;25.70;63.87;100443.88;5030132;28;20301;-84
2022/07/31 05:11:59;;;;;;;;;;;;;;;26.02;62.88;100439.41;5033302;28;19917;-84
2022/07/31 05:14:26;;;;;;;;;;;;;;;26.28;62.28;100437.56;5021767;28;19929;-85
2022/07/31 05:16:52;;;;;;;;;;;;;;;26.36;60.84;100436.19;5018796;28;19966;-84
2022/07/31 05:19:18;;;;;;;;;;;;;;;26.65;60.22;100434.66;5021857;28;19982;-85
2022/07/31 05:21:43;;;;;;;;;;;;;;;26.77;58.90;100439.09;5030637;28;19914;-85
2022/07/31 05:24:09;;;;;;;;;;;;;;;26.91;58.63;100442.94;5027479;28;19921;-84
2022/07/31 05:26:34;;;;;;;;;;;;;;;27.12;57.65;100441.84;5012127;28;19913;-84
2022/07/31 05:29:01;;;;;;;;;;;;;;;27.35;56.79;100437.72;5029815;28;20052;-84
2022/07/31 05:31:30;;;;;;;;;;;;;;;27.58;55.09;100432.69;5011770;28;20117;-84
2022/07/31 05:34:04;;;;;;;;;;;;;;;27.88;53.88;100434.56;5029559;28;19975;-83
2022/07/31 05:36:29;;;;;;;;;;;;;;;28.04;53.44;100440.84;5025210;28;19987;-85
2022/07/31 05:38:55;;;;;;;;;;;;;;;28.25;52.76;100433.28;5023731;28;20301;-86
2022/07/31 05:41:21;;;;;;;;;;;;;;;28.46;51.76;100435.94;5012789;28;19936;-85
2022/07/31 05:43:48;;;;;;;;;;;;;;;28.64;51.71;100438.09;5032758;28;20039;-85
2022/07/31 05:46:19;;;;;;;;;;;;;;;28.71;50.81;100438.59;5032436;28;19931;-85
2022/07/31 05:48:44;;;;;;;;;;;;;;;29.03;50.67;100440.81;5032580;28;19928;-86
2022/07/31 05:51:10;;;;;;;;;;;;;;;29.15;49.52;100434.94;5030255;28;20392;-87
2022/07/31 05:53:39;;;;;;;;;;;;;;;29.54;48.76;100439.53;5032402;28;19968;-87
2022/07/31 05:56:06;;;;;;;;;;;;;;;29.84;47.76;100437.56;5028052;28;19974;-85
2022/07/31 05:58:31;;;;;;;;;;;;;;;30.06;46.32;100431.47;5025567;28;19928;-86
2022/07/31 06:00:56;;;;;;;;;;;;;;;30.13;46.48;100436.66;5013486;28;20300;-86
2022/07/31 06:03:22;;;;;;;;;;;;;;;30.43;45.03;100432.66;5024447;28;20075;-87
2022/07/31 06:05:48;;;;;;;;;;;;;;;30.54;43.83;100433.34;5030613;28;20034;-83
2022/07/31 06:08:13;;;;;;;;;;;;;;;30.74;43.44;100435.78;5031811;28;19917;-93
2022/07/31 06:10:39;;;;;;;;;;;;;;;31.05;41.82;100429.81;5027984;28;19936;-88
2022/07/31 06:13:04;;;;;;;;;;;;;;;31.13;41.32;100434.63;5023149;28;20329;-89
2022/07/31 06:15:34;;;;;;;;;;;;;;;31.28;41.11;100430.75;5024988;28;19922;-89
2022/07/31 06:18:00;;;;;;;;;;;;;;;31.66;39.72;100431.47;5027135;28;20335;-88
2022/07/31 06:20:26;;;;;;;;;;;;;;;31.81;40.31;100435.06;5028097;28;19994;-89
2022/07/31 06:22:51;;;;;;;;;;;;;;;31.83;40.67;100425.28;5032401;28;20037;-86
2022/07/31 06:25:18;;;;;;;;;;;;;;;32.00;40.49;100424.69;5026314;28;20366;-86
2022/07/31 06:27:43;;;;;;;;;;;;;;;32.18;40.42;100425.69;5030442;28;19913;-88
2022/07/31 06:30:12;;;;;;;;;;;;;;;32.24;41.05;100418.06;5025945;28;20058;-87
2022/07/31 06:32:43;;;;;;;;;;;;;;;32.48;40.77;100418.63;5029119;28;20013;-93
2022/07/31 06:35:16;;;;;;;;;;;;;;;32.56;40.18;100419.84;5036877;28;19972;-93
2022/07/31 06:37:46;;;;;;;;;;;;;;;32.79;39.56;100415.13;5028721;28;20496;-86
2022/07/31 06:40:18;;;;;;;;;;;;;;;32.62;40.32;100420.56;5028288;28;19917;-88
2022/07/31 06:42:44;;;;;;;;;;;;;;;32.96;39.64;100420.00;5031565;28;19917;-84
2022/07/31 06:45:10;;;;;;;;;;;;;;;33.04;39.21;100422.06;5027183;28;19921;-84
2022/07/31 06:47:36;;;;;;;;;;;;;;;33.12;39.13;100415.72;5028574;28;19957;-87
2022/07/31 06:50:01;;;;;;;;;;;;;;;33.18;39.32;100419.19;5022038;28;19967;-86
2022/07/31 06:52:26;;;;;;;;;;;;;;;33.32;38.60;100413.50;5028287;28;20388;-87
2022/07/31 06:54:52;;;;;;;;;;;;;;;33.42;38.08;100411.28;5028946;28;19921;-85
2022/07/31 06:57:17;;;;;;;;;;;;;;;33.46;38.74;100407.84;5025272;28;20055;-84
2022/07/31 06:59:42;;;;;;;;;;;;;;;33.58;38.37;100411.72;5036689;28;20385;-84
2022/07/31 07:02:08;;;;;;;;;;;;;;;33.42;38.22;100405.72;5010331;28;20274;-84
2022/07/31 07:04:33;;;;;;;;;;;;;;;33.70;38.05;100402.75;5025719;28;20305;-84
2022/07/31 07:06:58;;;;;;;;;;;;;;;33.85;38.07;100393.91;5043827;28;20341;-84
2022/07/31 07:09:24;;;;;;;;;;;;;;;34.02;37.52;100403.47;5021618;28;19917;-84
2022/07/31 07:11:50;;;;;;;;;;;;;;;34.10;37.64;100405.50;5011792;28;19917;-86
2022/07/31 07:14:15;;;;;;;;;;;;;;;33.97;37.20;100398.84;5027063;28;19948;-86
2022/07/31 07:16:40;;;;;;;;;;;;;;;34.18;37.11;100396.31;5031670;28;20440;-86
2022/07/31 07:19:07;;;;;;;;;;;;;;;34.16;36.67;100393.03;5031029;28;19963;-85
2022/07/31 07:21:32;;;;;;;;;;;;;;;34.11;36.88;100393.19;5035866;28;19920;-85
2022/07/31 07:23:58;;;;;;;;;;;;;;;33.99;36.93;100393.78;5032913;28;19925;-86
2022/07/31 07:26:23;;;;;;;;;;;;;;;34.01;36.65;100387.88;5036666;28;19932;-85
2022/07/31 07:28:48;;;;;;;;;;;;;;;34.29;35.78;100390.41;5024421;28;19917;-86
2022/07/31 07:31:15;;;;;;;;;;;;;;;34.39;36.21;100390.09;5035090;28;19913;-85
2022/07/31 07:33:40;;;;;;;;;;;;;;;34.24;36.01;100392.22;5030020;28;20338;-84
2022/07/31 07:36:06;;;;;;;;;;;;;;;34.53;35.56;100390.75;5027571;28;19917;-85
2022/07/31 07:38:31;;;;;;;;;;;;;;;34.47;35.51;100387.31;5028080;28;19913;-84
2022/07/31 07:40:56;;;;;;;;;;;;;;;34.79;35.28;100382.38;5025591;28;19917;-84
2022/07/31 07:43:22;;;;;;;;;;;;;;;35.18;34.43;100376.91;5009882;28;19921;-86
2022/07/31 07:45:47;;;;;;;;;;;;;;;35.46;34.29;100380.88;5012865;28;19917;-84
2022/07/31 07:48:14;;;;;;;;;;;;;;;35.63;33.29;100382.00;5027704;28;19917;-84
2022/07/31 07:50:39;;;;;;;;;;;;;;;36.04;32.36;100380.44;5023404;28;19997;-85
2022/07/31 07:53:04;;;;;;;;;;;;;;;36.31;31.56;100374.31;5029890;28;20452;-86
2022/07/31 07:55:30;;;;;;;;;;;;;;;36.44;31.20;100374.41;5026183;28;19917;-84
2022/07/31 07:57:55;;;;;;;;;;;;;;;36.66;31.02;100376.03;5024986;28;19933;-87
2022/07/31 08:00:20;;;;;;;;;;;;;;;36.69;30.84;100367.78;5018476;28;19914;-86
2022/07/31 08:02:49;;;;;;;;;;;;;;;37.12;30.17;100369.31;5024633;28;19917;-86
2022/07/31 08:05:14;;;;;;;;;;;;;;;37.63;29.39;100363.41;5032649;28;20239;-86
2022/07/31 08:07:40;;;;;;;;;;;;;;;37.95;28.75;100377.63;5033683;28;19943;-87
2022/07/31 08:10:06;;;;;;;;;;;;;;;38.34;27.50;100369.63;5029660;28;19964;-87
2022/07/31 08:12:31;;;;;;;;;;;;;;;38.29;27.45;100376.31;5029781;28;19928;-87
2022/07/31 08:14:57;;;;;;;;;;;;;;;38.88;26.67;100382.41;5025387;28;20001;-87
2022/07/31 08:17:22;;;;;;;;;;;;;;;39.02;25.67;100375.19;5021821;28;19913;-88
2022/07/31 08:19:47;;;;;;;;;;;;;;;39.25;24.68;100378.22;5021881;28;20000;-88
2022/07/31 08:22:13;;;;;;;;;;;;;;;39.60;23.75;100377.50;5031896;28;20020;-87
2022/07/31 08:24:40;;;;;;;;;;;;;;;39.29;24.68;100383.94;5026052;28;19920;-87
2022/07/31 08:27:25;;;;;;;;;;;;;;;39.01;25.43;100372.78;5034958;28;20698;-86
2022/07/31 08:29:51;;;;;;;;;;;;;;;38.42;25.79;100377.91;5024228;28;19917;-86
2022/07/31 08:32:18;;;;;;;;;;;;;;;38.66;25.50;100372.56;5033291;28;19920;-88
2022/07/31 08:34:44;;;;;;;;;;;;;;;38.72;27.79;100380.38;5029733;28;19917;-87
2022/07/31 08:37:09;;;;;;;;;;;;;;;39.29;24.95;100383.09;5033513;28;20016;-87
2022/07/31 08:39:35;;;;;;;;;;;;;;;39.07;28.81;100371.31;5030390;28;20333;-88
2022/07/31 08:42:04;;;;;;;;;;;;;;;38.40;30.50;100373.78;5035331;28;19924;-86
2022/07/31 08:44:29;;;;;;;;;;;;;;;38.05;31.00;100374.38;5027015;28;19924;-84
2022/07/31 08:46:55;;;;;;;;;;;;;;;37.31;32.32;100377.16;5031515;28;19913;-87
2022/07/31 08:49:20;;;;;;;;;;;;;;;37.26;32.80;100370.97;5036814;28;19913;-87
2022/07/31 08:51:46;;;;;;;;;;;;;;;37.45;32.92;100371.22;5034887;28;20012;-87
2022/07/31 08:54:11;;;;;;;;;;;;;;;37.75;32.42;100373.81;5032845;28;20381;-87
2022/07/31 08:56:37;;;;;;;;;;;;;;;38.11;31.41;100364.53;5037119;28;19921;-85
2022/07/31 08:59:06;;;;;;;;;;;;;;;38.25;30.43;100364.16;5021232;28;19918;-86
2022/07/31 09:01:32;;;;;;;;;;;;;;;38.87;30.00;100375.13;5032774;28;19923;-87
2022/07/31 09:04:00;;;;;;;;;;;;;;;39.27;29.29;100369.44;5030117;28;19921;-86
2022/07/31 09:06:27;;;;;;;;;;;;;;;39.89;28.57;100355.69;5029942;28;20027;-86
2022/07/31 09:08:55;;;;;;;;;;;;;;;39.80;27.30;100358.66;5027338;28;19917;-86
2022/07/31 09:11:22;;;;;;;;;;;;;;;39.81;28.45;100360.34;5033582;28;19984;-87
2022/07/31 09:13:51;;;;;;;;;;;;;;;39.84;28.59;100361.59;5031269;28;19956;-85
2022/07/31 09:16:16;;;;;;;;;;;;;;;39.86;28.05;100350.81;5035494;28;20373;-86
2022/07/31 09:18:42;;;;;;;;;;;;;;;39.44;28.29;100357.00;5018641;28;20072;-87
2022/07/31 09:21:11;;;;;;;;;;;;;;;38.59;29.44;100357.16;5031808;28;19947;-86
2022/07/31 09:23:43;;;;;;;;;;;;;;;37.94;30.54;100354.38;5025861;28;19940;-86
2022/07/31 09:26:08;;;;;;;;;;;;;;;37.00;31.78;100358.06;5026593;28;20434;-85
2022/07/31 09:28:35;;;;;;;;;;;;;;;36.58;31.83;100335.75;5029294;28;19935;-86
2022/07/31 09:31:00;;;;;;;;;;;;;;;36.80;31.83;100336.53;5030757;28;19921;-85
2022/07/31 09:33:28;;;;;;;;;;;;;;;36.50;31.59;100336.63;5030072;28;19917;-85
2022/07/31 09:35:53;;;;;;;;;;;;;;;37.15;30.43;100329.38;5028471;28;19932;-85
2022/07/31 09:38:19;;;;;;;;;;;;;;;37.05;28.96;100327.00;5030346;28;19917;-84
2022/07/31 09:40:45;;;;;;;;;;;;;;;37.53;28.62;100328.28;5027068;28;20270;-83
2022/07/31 09:43:18;;;;;;;;;;;;;;;37.70;28.32;100323.56;5029501;28;19976;-83
2022/07/31 09:45:47;;;;;;;;;;;;;;;37.05;28.06;100312.19;5027988;28;19927;-84
2022/07/31 09:48:12;;;;;;;;;;;;;;;36.71;27.90;100329.03;5026860;28;19929;-84
2022/07/31 09:50:41;;;;;;;;;;;;;;;37.71;26.32;100333.59;5031112;28;20369;-86
2022/07/31 09:53:06;;;;;;;;;;;;;;;37.97;25.94;100333.22;5026245;28;20267;-85
2022/07/31 09:55:32;;;;;;;;;;;;;;;37.78;26.20;100328.22;5024408;28;19944;-85
2022/07/31 09:57:59;;;;;;;;;;;;;;;37.42;25.98;100331.84;5022506;28;19954;-86
2022/07/31 10:00:25;;;;;;;;;;;;;;;36.60;27.42;100327.00;5021359;28;19913;-86
2022/07/31 10:02:52;;;;;;;;;;;;;;;35.81;28.81;100330.41;5013028;28;20000;-85
2022/07/31 10:05:17;;;;;;;;;;;;;;;36.80;28.00;100336.53;5032566;28;20008;-85
2022/07/31 10:07:42;;;;;;;;;;;;;;;38.51;25.74;100332.03;5028059;28;20380;-86
2022/07/31 10:10:08;;;;;;;;;;;;;;;38.14;26.47;100330.16;5031613;28;20263;-87
2022/07/31 10:12:35;;;;;;;;;;;;;;;37.39;27.05;100336.16;5031520;28;20300;-87
2022/07/31 10:15:05;;;;;;;;;;;;;;;36.55;28.85;100342.84;5025294;28;19913;-86
2022/07/31 10:17:31;;;;;;;;;;;;;;;35.89;29.35;100359.47;5024527;28;19936;-83
2022/07/31 10:19:58;;;;;;;;;;;;;;;35.74;30.33;100358.09;5025371;28;19924;-84
2022/07/31 10:22:24;;;;;;;;;;;;;;;35.08;31.34;100359.31;5027305;28;20393;-88
2022/07/31 10:24:49;;;;;;;;;;;;;;;34.68;32.24;100354.00;5030156;28;19917;-88
2022/07/31 10:27:15;;;;;;;;;;;;;;;34.15;33.24;100352.34;5030371;28;19919;-86
2022/07/31 10:29:42;;;;;;;;;;;;;;;33.78;33.93;100351.75;5027413;28;20439;-90
2022/07/31 10:32:07;;;;;;;;;;;;;;;33.42;34.28;100352.78;5029937;28;19917;-87
2022/07/31 10:34:33;;;;;;;;;;;;;;;33.19;34.68;100342.84;5027306;28;19935;-85
2022/07/31 10:37:01;;;;;;;;;;;;;;;32.92;35.20;100344.66;5029353;28;19917;-85
2022/07/31 10:39:48;;;;;;;;;;;;;;;32.96;34.90;100336.47;5036506;28;19980;-88
2022/07/31 10:42:32;;;;;;;;;;;;;;;33.48;33.63;100344.25;5041370;28;19917;-88
2022/07/31 10:45:07;;;;;;;;;;;;;;;33.69;33.00;100336.16;5040882;28;19917;-89
2022/07/31 10:47:32;;;;;;;;;;;;;;;34.18;32.16;100328.53;5033831;28;19927;-89
2022/07/31 10:49:58;;;;;;;;;;;;;;;34.35;32.23;100333.28;5025809;28;19960;-85
2022/07/31 10:52:37;;;;;;;;;;;;;;;34.93;31.45;100331.09;5052340;28;19913;-88
2022/07/31 10:55:15;;;;;;;;;;;;;;;36.55;29.08;100322.44;5034871;28;20433;-91
2022/07/31 10:57:40;;;;;;;;;;;;;;;37.18;27.93;100311.88;5011147;28;19995;-88
2022/07/31 11:00:10;;;;;;;;;;;;;;;38.12;26.50;100309.22;5030655;28;19913;-89
2022/07/31 11:02:43;;;;;;;;;;;;;;;37.13;28.03;100306.47;5032562;28;19921;-90
2022/07/31 11:05:20;;;;;;;;;;;;;;;37.04;28.12;100311.38;5032095;28;20386;-92
2022/07/31 11:07:46;;;;;;;;;;;;;;;36.41;28.53;100305.94;5033699;28;19917;-90
2022/07/31 11:10:12;;;;;;;;;;;;;;;36.44;28.71;100307.22;5041699;28;20031;-84
2022/07/31 11:12:38;;;;;;;;;;;;;;;36.09;29.45;100311.09;5041928;28;20092;-87
2022/07/31 11:15:04;;;;;;;;;;;;;;;35.84;29.63;100320.50;5040231;28;20423;-89
2022/07/31 11:17:35;;;;;;;;;;;;;;;35.69;30.05;100319.97;5031685;28;19917;-86
2022/07/31 11:20:00;;;;;;;;;;;;;;;35.12;30.93;100331.53;5024275;28;20328;-87
2022/07/31 11:22:26;;;;;;;;;;;;;;;34.65;31.43;100317.53;5025904;28;19955;-87
2022/07/31 11:24:54;;;;;;;;;;;;;;;34.12;32.66;100325.09;5025925;28;19921;-85
2022/07/31 11:27:51;;;;;;;;;;;;;;;33.71;33.10;100331.91;5044088;28;19944;-90
2022/07/31 11:30:18;;;;;;;;;;;;;;;33.46;33.51;100330.69;5026658;28;19932;-88
2022/07/31 11:32:48;;;;;;;;;;;;;;;33.71;33.08;100331.91;5025613;28;20029;-85
2022/07/31 11:35:22;;;;;;;;;;;;;;;33.73;33.20;100335.19;5027733;28;19917;-86
2022/07/31 11:37:48;;;;;;;;;;;;;;;33.97;32.64;100333.91;5029401;28;20270;-79
2022/07/31 11:40:13;;;;;;;;;;;;;;;34.51;32.33;100336.41;5023058;28;19923;-81
2022/07/31 11:42:46;;;;;;;;;;;;;;;35.48;30.40;100322.69;5026657;28;20393;-82
2022/07/31 11:45:13;;;;;;;;;;;;;;;36.25;29.19;100324.53;5012449;28;19917;-84
2022/07/31 11:47:43;;;;;;;;;;;;;;;36.84;28.56;100324.28;5023214;28;20423;-79
2022/07/31 11:50:11;;;;;;;;;;;;;;;37.11;27.97;100310.81;5010646;28;19917;-80
2022/07/31 11:52:46;;;;;;;;;;;;;;;37.33;27.53;100317.97;5029829;28;20388;-82
2022/07/31 11:55:14;;;;;;;;;;;;;;;37.88;26.95;100310.88;5016710;28;19925;-82
2022/07/31 11:57:40;;;;;;;;;;;;;;;38.28;26.52;100307.28;5036515;28;19972;-82
2022/07/31 12:00:07;;;;;;;;;;;;;;;38.20;26.10;100306.28;5025723;28;20001;-83
2022/07/31 12:02:32;;;;;;;;;;;;;;;38.16;25.95;100301.72;5030203;28;19983;-88
2022/07/31 12:05:02;;;;;;;;;;;;;;;38.33;25.99;100297.78;5027135;28;20378;-83
2022/07/31 12:07:28;;;;;;;;;;;;;;;37.89;26.51;100292.91;5028748;28;19925;-83
2022/07/31 12:09:53;;;;;;;;;;;;;;;37.00;27.48;100296.41;5031436;28;19917;-84
2022/07/31 12:12:19;;;;;;;;;;;;;;;37.50;26.77;100295.28;5042087;28;20408;-84
2022/07/31 12:14:45;;;;;;;;;;;;;;;37.61;26.52;100292.03;5021734;28;20578;-84
2022/07/31 12:17:17;;;;;;;;;;;;;;;38.04;26.59;100293.34;5031458;28;19940;-82
2022/07/31 12:19:43;;;;;;;;;;;;;;;38.16;26.19;100287.69;5044532;28;19917;-84
2022/07/31 12:22:14;;;;;;;;;;;;;;;37.70;26.88;100285.13;5023881;28;19917;-83
2022/07/31 12:24:39;;;;;;;;;;;;;;;37.35;26.94;100291.22;5028570;28;19917;-84
2022/07/31 12:27:05;;;;;;;;;;;;;;;37.17;27.50;100290.63;5024254;28;19976;-84
2022/07/31 12:29:35;;;;;;;;;;;;;;;36.76;27.85;100280.38;5039477;28;19925;-86
2022/07/31 12:32:00;;;;;;;;;;;;;;;36.94;27.10;100278.19;5020137;28;20370;-84
2022/07/31 12:34:27;;;;;;;;;;;;;;;37.23;26.60;100276.38;5024221;28;19939;-83